createdAt,value
2019-05-29T00:03:10.503Z,34.43
2019-05-29T00:06:34.640Z,51.03
2019-05-29T00:09:58.501Z,61.70
2019-05-29T00:13:22.345Z,43.03
2019-05-29T00:16:46.164Z,52.27
2019-05-29T00:20:10.589Z,37.73
2019-05-29T00:23:34.353Z,31.30
2019-05-29T00:26:58.272Z,34.37
2019-05-29T00:30:21.967Z,32.93
2019-05-29T00:33:45.743Z,55.53
2019-05-29T00:37:10.487Z,53.27
2019-05-29T00:40:34.468Z,60.23
2019-05-29T00:43:58.400Z,42.07
2019-05-29T00:47:22.090Z,41.33
2019-05-29T00:50:46.055Z,169.10
2019-05-29T00:54:10.298Z,57.20
2019-05-29T00:57:34.327Z,52.70
2019-05-29T01:00:58.171Z,50.70
2019-05-29T01:04:22.186Z,47.23
2019-05-29T01:07:46.130Z,52.83
2019-05-29T01:11:10.617Z,59.83
2019-05-29T01:14:47.254Z,72.07
2019-05-29T01:18:00.245Z,53.20
2019-05-29T01:21:24.118Z,68.73
2019-05-29T01:24:48.057Z,71.50
2019-05-29T01:28:12.678Z,56.67
2019-05-29T01:31:36.584Z,56.63
2019-05-29T01:35:00.366Z,55.00
2019-05-29T01:38:24.126Z,55.07
2019-05-29T01:41:48.014Z,57.03
2019-05-29T01:45:12.095Z,52.10
2019-05-29T01:48:36.058Z,48.17
2019-05-29T01:51:59.975Z,52.17
2019-05-29T01:55:23.921Z,50.43
2019-05-29T01:58:47.680Z,42.63
2019-05-29T02:02:11.652Z,51.30
2019-05-29T02:05:35.542Z,52.27
2019-05-29T02:08:59.892Z,44.00
2019-05-29T02:12:24.427Z,44.70
2019-05-29T02:15:48.677Z,49.60
2019-05-29T02:19:12.566Z,47.97
2019-05-29T02:22:36.437Z,46.43
2019-05-29T02:26:00.353Z,40.90
2019-05-29T02:29:24.889Z,48.43
2019-05-29T02:32:48.798Z,61.57
2019-05-29T02:36:12.716Z,62.60
2019-05-29T02:39:36.415Z,71.97
2019-05-29T02:43:00.266Z,67.23
2019-05-29T02:46:25.919Z,83.27
2019-05-29T02:49:49.751Z,76.13
2019-05-29T02:53:13.505Z,94.37
2019-05-29T02:56:37.365Z,85.30
2019-05-29T03:00:01.159Z,91.53
2019-05-29T03:03:26.496Z,85.47
2019-05-29T03:06:51.227Z,93.80
2019-05-29T03:10:15.284Z,97.70
2019-05-29T03:13:39.278Z,99.10
2019-05-29T03:17:03.069Z,110.43
2019-05-29T03:20:28.181Z,122.63
2019-05-29T03:23:52.040Z,148.97
2019-05-29T03:27:16.213Z,175.03
2019-05-29T03:30:45.805Z,135.17
2019-05-29T03:34:05.551Z,139.27
2019-05-29T03:37:30.330Z,140.87
2019-05-29T03:40:54.354Z,122.03
2019-05-29T03:44:18.193Z,89.23
2019-05-29T03:47:42.258Z,101.07
2019-05-29T03:51:06.151Z,81.73
2019-05-29T03:54:30.926Z,60.73
2019-05-29T03:57:55.358Z,47.00
2019-05-29T04:01:19.324Z,51.33
2019-05-29T04:04:43.060Z,50.23
2019-05-29T04:08:06.997Z,37.17
2019-05-29T04:11:31.467Z,39.93
2019-05-29T04:14:55.329Z,37.97
2019-05-29T04:18:20.831Z,44.23
2019-05-29T04:21:46.871Z,35.40
2019-05-29T04:25:10.792Z,36.30
2019-05-29T04:28:35.323Z,29.03
2019-05-29T04:32:00.107Z,29.70
2019-05-29T04:35:24.011Z,23.60
2019-05-29T04:38:47.884Z,26.10
2019-05-29T04:42:11.730Z,22.93
2019-05-29T04:45:39.191Z,22.17
2019-05-29T04:49:01.452Z,24.33
2019-05-29T04:52:25.249Z,21.53
2019-05-29T04:55:49.083Z,25.10
2019-05-29T04:59:12.942Z,22.70
2019-05-29T05:02:37.297Z,25.50
2019-05-29T05:06:01.565Z,23.47
2019-05-29T05:09:25.398Z,24.60
2019-05-29T05:12:49.586Z,20.47
2019-05-29T05:16:13.945Z,22.10
2019-05-29T05:19:38.093Z,19.47
2019-05-29T05:23:01.868Z,12.87
2019-05-29T05:26:25.648Z,13.70
2019-05-29T05:29:49.367Z,10.43
2019-05-29T05:33:13.337Z,9.33
2019-05-29T05:36:37.123Z,7.93
2019-05-29T05:40:00.990Z,6.47
2019-05-29T05:43:25.215Z,4.77
2019-05-29T05:46:48.965Z,4.57
2019-05-29T05:50:13.402Z,3.03
2019-05-29T05:53:41.553Z,2.13
2019-05-29T05:57:05.690Z,2.57
2019-05-29T06:00:33.678Z,2.23
2019-05-29T06:03:57.798Z,2.40
2019-05-29T06:07:21.704Z,1.60
2019-05-29T06:10:45.667Z,4.83
2019-05-29T06:14:10.171Z,5.30
2019-05-29T06:17:36.539Z,5.37
2019-05-29T06:21:00.505Z,3.60
2019-05-29T06:24:24.259Z,3.83
2019-05-29T06:27:48.163Z,4.50
2019-05-29T06:31:11.996Z,3.27
2019-05-29T06:34:35.949Z,2.77
2019-05-29T06:37:59.771Z,6.07
2019-05-29T06:41:23.638Z,4.53
2019-05-29T06:44:49.446Z,3.17
2019-05-29T06:48:15.916Z,7.37
2019-05-29T06:51:39.758Z,2.77
2019-05-29T06:55:03.882Z,5.10
2019-05-29T06:58:27.690Z,3.00
2019-05-29T07:01:51.636Z,7.30
2019-05-29T07:05:15.423Z,7.63
2019-05-29T07:08:44.182Z,10.23
2019-05-29T07:12:04.783Z,6.47
2019-05-29T07:15:28.641Z,3.10
2019-05-29T07:19:24.169Z,2.20
2019-05-29T07:22:18.246Z,1.87
2019-05-29T07:25:42.964Z,2.17
2019-05-29T07:29:08.645Z,2.93
2019-05-29T07:32:32.312Z,5.43
2019-05-29T07:35:56.280Z,1.70
2019-05-29T07:39:20.273Z,3.00
2019-05-29T07:42:49.772Z,9.37
2019-05-29T07:46:09.691Z,1.83
2019-05-29T07:49:40.859Z,3.13
2019-05-29T07:53:02.125Z,2.13
2019-05-29T07:56:25.931Z,9.07
2019-05-29T07:59:49.740Z,3.40
2019-05-29T08:03:13.822Z,1.60
2019-05-29T08:06:38.860Z,1.30
2019-05-29T08:10:05.211Z,2.27
2019-05-29T08:13:29.031Z,1.27
2019-05-29T08:16:52.853Z,1.40
2019-05-29T08:20:16.921Z,1.87
2019-05-29T08:23:40.763Z,3.03
2019-05-29T08:27:04.770Z,2.60
2019-05-29T08:30:28.664Z,1.60
2019-05-29T08:33:52.821Z,2.43
2019-05-29T08:37:16.726Z,2.37
2019-05-29T08:40:41.032Z,1.53
2019-05-29T08:44:05.181Z,0.80
2019-05-29T08:47:29.126Z,1.60
2019-05-29T08:50:53.098Z,1.10
2019-05-29T08:54:23.918Z,2.40
2019-05-29T08:57:44.808Z,1.13
2019-05-29T09:01:08.946Z,1.43
2019-05-29T09:04:32.884Z,0.70
2019-05-29T09:07:56.706Z,0.73
2019-05-29T09:11:20.632Z,1.63
2019-05-29T09:14:44.400Z,1.57
2019-05-29T09:18:09.344Z,1.23
2019-05-29T09:21:33.176Z,1.20
2019-05-29T09:24:57.038Z,1.00
2019-05-29T09:28:20.847Z,1.37
2019-05-29T09:31:45.134Z,1.60
2019-05-29T09:35:09.203Z,1.83
2019-05-29T09:38:32.955Z,1.33
2019-05-29T09:41:56.793Z,0.70
2019-05-29T09:45:21.573Z,3.00
2019-05-29T09:48:49.647Z,1.20
2019-05-29T09:52:12.762Z,2.20
2019-05-29T09:55:36.594Z,1.10
2019-05-29T09:59:01.851Z,7.00
2019-05-29T10:02:26.023Z,1.83
2019-05-29T10:05:49.788Z,2.53
2019-05-29T10:09:13.822Z,1.90
2019-05-29T10:12:37.977Z,1.53
2019-05-29T10:16:02.900Z,3.33
2019-05-29T10:19:27.083Z,1.00
2019-05-29T10:22:50.939Z,4.10
2019-05-29T10:26:14.788Z,2.57
2019-05-29T10:29:38.556Z,1.67
2019-05-29T10:33:02.543Z,2.97
2019-05-29T10:36:26.509Z,2.37
2019-05-29T10:39:50.957Z,1.20
2019-05-29T10:43:14.846Z,1.77
2019-05-29T10:46:38.656Z,1.50
2019-05-29T10:50:02.867Z,2.90
2019-05-29T10:53:26.836Z,2.33
2019-05-29T10:56:50.888Z,2.50
2019-05-29T11:00:16.638Z,2.90
2019-05-29T11:03:40.469Z,3.47
2019-05-29T11:07:04.391Z,4.10
2019-05-29T11:10:28.109Z,2.37
2019-05-29T11:13:52.840Z,3.30
2019-05-29T11:17:16.856Z,2.70
2019-05-29T11:20:40.813Z,2.67
2019-05-29T11:24:05.319Z,4.27
2019-05-29T11:27:29.421Z,4.63
2019-05-29T11:30:53.807Z,4.73
2019-05-29T11:34:23.245Z,5.73
2019-05-29T11:37:47.094Z,9.47
2019-05-29T11:41:25.061Z,14.37
2019-05-29T11:44:38.146Z,5.17
2019-05-29T11:48:04.847Z,6.80
2019-05-29T11:51:27.521Z,6.33
2019-05-29T11:54:55.543Z,4.57
2019-05-29T11:58:30.519Z,6.20
2019-05-29T12:01:50.240Z,4.57
2019-05-29T12:05:09.715Z,5.57
2019-05-29T12:08:33.577Z,5.30
2019-05-29T12:11:58.177Z,6.50
2019-05-29T12:15:22.711Z,8.37
2019-05-29T12:18:48.085Z,5.47
2019-05-29T12:22:12.208Z,7.80
2019-05-29T12:25:37.517Z,7.63
2019-05-29T12:29:09.083Z,7.07
2019-05-29T12:32:27.002Z,9.70
2019-05-29T12:35:50.902Z,8.43
2019-05-29T12:39:14.710Z,7.73
2019-05-29T12:42:38.525Z,8.23
2019-05-29T12:46:02.371Z,6.80
2019-05-29T12:49:26.403Z,8.23
2019-05-29T12:52:50.616Z,7.00
2019-05-29T12:56:14.581Z,8.03
2019-05-29T12:59:40.180Z,11.80
2019-05-29T13:03:05.260Z,13.77
2019-05-29T13:06:29.319Z,11.03
2019-05-29T13:09:54.221Z,11.97
2019-05-29T13:13:18.621Z,9.93
2019-05-29T13:16:45.766Z,8.43
2019-05-29T13:20:20.951Z,10.90
2019-05-29T13:23:44.997Z,10.20
2019-05-29T13:27:05.973Z,20.87
2019-05-29T13:30:28.897Z,11.80
2019-05-29T13:33:52.760Z,28.40
2019-05-29T13:37:16.634Z,16.37
2019-05-29T13:40:40.825Z,12.43
2019-05-29T13:44:04.984Z,14.47
2019-05-29T13:47:32.094Z,16.83
2019-05-29T13:50:56.998Z,14.77
2019-05-29T13:54:23.206Z,11.60
2019-05-29T13:57:47.088Z,11.23
2019-05-29T14:01:18.269Z,18.43
2019-05-29T14:04:41.965Z,11.17
2019-05-29T14:08:07.117Z,14.43
2019-05-29T14:11:31.733Z,11.40
2019-05-29T14:14:57.104Z,14.63
2019-05-29T14:18:21.273Z,53.93
2019-05-29T14:21:45.315Z,10.00
2019-05-29T14:25:11.521Z,10.93
2019-05-29T14:28:35.606Z,7.20
2019-05-29T14:32:00.838Z,9.13
2019-05-29T14:35:25.501Z,10.93
2019-05-29T14:38:51.010Z,10.97
2019-05-29T14:42:14.810Z,20.77
2019-05-29T14:45:38.937Z,8.73
2019-05-29T14:49:04.233Z,12.07
2019-05-29T14:52:28.228Z,9.40
2019-05-29T14:55:52.074Z,7.37
2019-05-29T14:59:16.054Z,5.63
2019-05-29T15:02:39.806Z,9.30
2019-05-29T15:06:05.534Z,11.50
2019-05-29T15:09:29.368Z,6.50
2019-05-29T15:12:57.588Z,8.17
2019-05-29T15:16:19.259Z,9.57
2019-05-29T15:19:42.996Z,7.87
2019-05-29T15:23:07.586Z,13.63
2019-05-29T15:26:31.766Z,7.70
2019-05-29T15:29:55.631Z,8.97
2019-05-29T15:33:19.691Z,10.20
2019-05-29T15:36:43.597Z,17.77
2019-05-29T15:40:10.937Z,11.23
2019-05-29T15:43:34.890Z,17.80
2019-05-29T15:46:58.799Z,9.10
2019-05-29T15:50:22.525Z,6.80
2019-05-29T15:53:46.331Z,8.47
2019-05-29T15:57:10.996Z,5.73
2019-05-29T16:00:35.429Z,8.47
2019-05-29T16:03:59.689Z,10.57
2019-05-29T16:07:24.020Z,11.63
2019-05-29T16:10:47.832Z,8.17
2019-05-29T16:14:12.911Z,8.80
2019-05-29T16:17:37.156Z,6.33
2019-05-29T16:21:00.956Z,7.40
2019-05-29T16:24:24.765Z,9.20
2019-05-29T16:27:48.907Z,7.90
2019-05-29T16:31:12.718Z,12.43
2019-05-29T16:34:37.366Z,8.30
2019-05-29T16:38:02.288Z,12.10
2019-05-29T16:41:26.739Z,12.60
2019-05-29T16:44:50.923Z,13.70
2019-05-29T16:48:18.916Z,23.60
2019-05-29T16:51:42.596Z,10.53
2019-05-29T16:55:07.620Z,18.93
2019-05-29T16:58:31.575Z,32.97
2019-05-29T17:01:55.443Z,14.97
2019-05-29T17:05:20.493Z,38.20
2019-05-29T17:08:45.555Z,21.00
2019-05-29T17:12:09.314Z,15.47
2019-05-29T17:15:33.638Z,16.10
2019-05-29T17:18:58.136Z,35.73
2019-05-29T17:22:22.830Z,11.10
2019-05-29T17:25:47.156Z,12.50
2019-05-29T17:29:11.336Z,51.17
2019-05-29T17:32:35.460Z,14.00
2019-05-29T17:36:00.135Z,117.13
2019-05-29T17:39:25.195Z,16.57
2019-05-29T17:42:50.195Z,23.33
2019-05-29T17:46:15.321Z,24.47
2019-05-29T17:49:39.820Z,14.87
2019-05-29T17:53:03.853Z,16.10
2019-05-29T17:56:36.259Z,29.47
2019-05-29T17:59:53.876Z,41.17
2019-05-29T18:03:20.112Z,38.73
2019-05-29T18:06:47.453Z,15.43
2019-05-29T18:10:20.700Z,12.33
2019-05-29T18:13:44.310Z,16.70
2019-05-29T18:17:08.214Z,15.93
2019-05-29T18:20:32.193Z,22.37
2019-05-29T18:23:56.072Z,18.20
2019-05-29T18:27:21.780Z,15.07
2019-05-29T18:30:46.179Z,22.87
2019-05-29T18:34:10.051Z,24.47
2019-05-29T18:37:39.860Z,20.57
2019-05-29T18:41:20.190Z,16.80
2019-05-29T18:44:46.262Z,21.90
2019-05-29T18:48:12.268Z,22.57
2019-05-29T18:51:38.529Z,19.47
2019-05-29T18:55:05.129Z,19.77
2019-05-29T18:58:30.713Z,22.40
2019-05-29T19:01:55.015Z,20.03
2019-05-29T19:05:19.672Z,21.23
2019-05-29T19:08:43.726Z,32.33
2019-05-29T19:12:08.730Z,40.17
2019-05-29T19:15:33.595Z,33.93
2019-05-29T19:18:58.089Z,43.70
2019-05-29T19:22:22.278Z,37.67
2019-05-29T19:25:46.350Z,31.63
2019-05-29T19:29:13.628Z,32.80
2019-05-29T19:32:37.594Z,17.63
2019-05-29T19:36:02.219Z,19.23
2019-05-29T19:39:26.093Z,19.90
2019-05-29T19:42:53.933Z,25.83
2019-05-29T19:46:15.997Z,22.20
2019-05-29T19:49:39.936Z,25.63
2019-05-29T19:53:03.845Z,22.50
2019-05-29T19:56:27.750Z,23.40
2019-05-29T19:59:51.525Z,29.47
2019-05-29T20:03:15.533Z,31.67
2019-05-29T20:06:39.571Z,31.93
2019-05-29T20:10:03.470Z,29.57
2019-05-29T20:13:27.659Z,33.20
2019-05-29T20:16:52.339Z,28.07
2019-05-29T20:20:16.548Z,28.83
2019-05-29T20:23:40.766Z,22.03
2019-05-29T20:27:05.325Z,21.40
2019-05-29T20:30:32.329Z,20.10
2019-05-29T20:33:56.869Z,16.77
2019-05-29T20:37:20.643Z,19.47
2019-05-29T20:40:44.646Z,21.43
2019-05-29T20:44:09.957Z,26.37
2019-05-29T20:47:35.580Z,20.30
2019-05-29T20:50:59.536Z,16.33
2019-05-29T20:54:23.442Z,20.37
2019-05-29T20:57:47.366Z,18.77
2019-05-29T21:01:11.951Z,21.23
2019-05-29T21:04:36.339Z,23.80
2019-05-29T21:08:00.854Z,17.87
2019-05-29T21:11:24.878Z,19.70
2019-05-29T21:14:49.123Z,17.67
2019-05-29T21:18:12.989Z,21.47
2019-05-29T21:21:38.287Z,19.30
2019-05-29T21:25:07.575Z,19.83
2019-05-29T21:28:39.720Z,17.67
2019-05-29T21:31:53.451Z,14.27
2019-05-29T21:35:17.261Z,16.43
2019-05-29T21:38:42.220Z,15.00
2019-05-29T21:42:06.299Z,20.03
2019-05-29T21:45:30.271Z,14.30
2019-05-29T21:48:54.015Z,15.00
2019-05-29T21:52:17.816Z,15.40
2019-05-29T21:55:41.700Z,14.23
2019-05-29T21:59:05.930Z,15.57
2019-05-29T22:02:29.732Z,18.03
2019-05-29T22:05:53.623Z,16.73
2019-05-29T22:09:17.483Z,14.60
2019-05-29T22:12:41.317Z,13.03
2019-05-29T22:16:05.130Z,14.13
2019-05-29T22:19:29.396Z,15.30
2019-05-29T22:22:53.675Z,9.00
2019-05-29T22:26:17.530Z,15.50
2019-05-29T22:29:41.268Z,15.43
2019-05-29T22:33:05.092Z,18.20
2019-05-29T22:36:28.993Z,13.73
2019-05-29T22:39:53.600Z,13.37
2019-05-29T22:43:17.608Z,9.37
2019-05-29T22:46:41.556Z,12.17
2019-05-29T22:50:08.631Z,14.13
2019-05-29T22:53:32.623Z,15.67
2019-05-29T22:56:56.503Z,10.83
2019-05-29T23:00:21.383Z,15.10
2019-05-29T23:03:45.558Z,11.60
2019-05-29T23:07:09.478Z,14.23
2019-05-29T23:10:33.303Z,10.93
2019-05-29T23:13:58.269Z,9.10
2019-05-29T23:17:22.205Z,13.10
2019-05-29T23:20:46.035Z,8.13
2019-05-29T23:24:09.866Z,7.17
2019-05-29T23:27:33.824Z,10.20
2019-05-29T23:30:58.806Z,5.97
2019-05-29T23:34:22.809Z,24.93
2019-05-29T23:37:46.703Z,6.70
2019-05-29T23:41:10.516Z,6.40
2019-05-29T23:44:34.408Z,8.10
2019-05-29T23:47:59.533Z,7.97
2019-05-29T23:51:23.488Z,4.80
2019-05-29T23:54:47.373Z,6.63
2019-05-29T23:58:11.159Z,7.97
